Flight Track Log - Related Links

Times and Time Zones

All times are in EDT time to prevent confusion due to time zone crossing. See the ASQ5866 flight status page for this flight to view local times or setup timezone preferences in your user account.

Time Position Orientation Groundspeed Altitude Reporting Facility
EDT Latitude Longitude Course Direction KTS MPH feet Rate Location/Type
Tue 06:05:01 PM 41.9500 -87.9000 180° South 169 194 1,700  Level Chicago TRACON
Tue 06:06:01 PM 41.8833 -87.9000 150° Southeast 203 234 4,400 2,631 Climbing Chicago TRACON
Tue 06:08:08 PM 41.7606 -87.8050 154° Southeast 258 297 9,900 2,503 Climbing Chicago Center
Tue 06:09:08 PM 41.6850 -87.7567 152° Southeast 284 327 12,200 1,700 Climbing Chicago Center
Tue 06:10:08 PM 41.5986 -87.6950 153° Southeast 319 367 13,300 1,550 Climbing Chicago Center
Tue 06:11:08 PM 41.5058 -87.6308 164° South 353 406 15,300 1,700 Climbing Chicago Center
Tue 06:13:08 PM 41.3003 -87.5506 172° South 366 421 18,400 1,433 Climbing Chicago Center
Tue 06:14:08 PM 41.1958 -87.5314 170° South 377 434 19,600 1,150 Climbing Chicago Center
Tue 06:15:08 PM 41.0911 -87.5067 166° South 383 441 20,700 1,000 Climbing Chicago Center
Tue 06:16:08 PM 41.0053 -87.4789 158° South 383 441 21,600 1,100 Climbing Chicago Center
Tue 06:17:08 PM 40.8811 -87.4111 155° Southeast 395 455 22,900 1,250 Climbing Chicago Center
Tue 06:18:08 PM 40.7778 -87.3483 157° South 405 466 24,100 1,150 Climbing Chicago Center
Tue 06:19:08 PM 40.6767 -87.2911 156° South 405 466 25,200 1,100 Climbing Chicago Center
Tue 06:20:08 PM 40.5839 -87.2367 157° South 405 466 26,300 950 Climbing Chicago Center
Tue 06:21:08 PM 40.4808 -87.1797 159° South 400 460 27,100 850 Climbing Chicago Center
Tue 06:22:08 PM 40.3672 -87.1236 156° South 400 460 28,000 989 Climbing Chicago Center
Tue 06:24:16 PM 40.1450 -86.9950 157° South 406 467 30,200 957 Climbing Indianapolis Center
Tue 06:25:16 PM 40.0547 -86.9447 157° South 406 467 31,000 900 Climbing Indianapolis Center
Tue 06:26:16 PM 39.9519 -86.8881 158° South 406 467 32,000 950 Climbing Indianapolis Center
Tue 06:27:16 PM 39.8514 -86.8347 157° South 406 467 32,900 950 Climbing Indianapolis Center
Tue 06:28:16 PM 39.7508 -86.7786 158° South 400 460 33,900 1,000 Climbing Indianapolis Center
Tue 06:29:16 PM 39.6500 -86.7256 147° Southeast 400 460 34,900 550 Climbing Indianapolis Center
Tue 06:30:16 PM 39.5561 -86.6458 117° Southeast 394 453 35,000 50 Climbing Indianapolis Center
Tue 06:31:16 PM 39.4975 -86.4981 116° Southeast 427 491 35,000  Level Indianapolis Center
Tue 06:32:16 PM 39.4406 -86.3478 115° Southeast 459 528 35,000 -300 Level Indianapolis Center
Tue 06:33:16 PM 39.3856 -86.1981 116° Southeast 466 536 34,400 -1,000 Descending Indianapolis Center
Tue 06:34:16 PM 39.3283 -86.0456 116° Southeast 466 536 33,000 -700 Descending Indianapolis Center
Tue 06:35:16 PM 39.2731 -85.8986 116° Southeast 461 531 33,000  Level Indianapolis Center
Tue 06:36:16 PM 39.2175 -85.7522 117° Southeast 456 525 33,000  Level Indianapolis Center
Tue 06:37:16 PM 39.1617 -85.6083 117° Southeast 455 524 33,000  Level Indianapolis Center
Tue 06:38:16 PM 39.1036 -85.4622 117° Southeast 455 524 33,000  Level Indianapolis Center
Tue 06:39:16 PM 39.0394 -85.3003 116° Southeast 455 524 33,000  Level Indianapolis Center
Tue 06:40:16 PM 38.9831 -85.1492 116° Southeast 455 524 33,000  Level Indianapolis Center
Tue 06:41:16 PM 38.9247 -84.9983 117° Southeast 455 524 33,000  Level Indianapolis Center
Tue 06:42:16 PM 38.8658 -84.8478 118° Southeast 455 524 33,000  Level Indianapolis Center
Tue 06:43:16 PM 38.8050 -84.7003 116° Southeast 455 524 33,000  Level Indianapolis Center
Tue 06:44:16 PM 38.7519 -84.5583 118° Southeast 453 521 33,000  Level Indianapolis Center
Tue 06:45:16 PM 38.6925 -84.4164 115° Southeast 453 521 33,000  Level Indianapolis Center
Tue 06:46:16 PM 38.6497 -84.2989 98° East 453 521 33,000  Level Indianapolis Center
Tue 06:47:16 PM 38.6297 -84.1181 98° East 453 521 33,000  Level Indianapolis Center
Tue 06:48:16 PM 38.6117 -83.9531 98° East 470 541 33,000  Level Indianapolis Center
Tue 06:49:16 PM 38.5933 -83.7803 99° East 480 552 33,000  Level Indianapolis Center
Tue 06:50:16 PM 38.5728 -83.6156 97° East 486 559 33,000  Level Indianapolis Center
Tue 06:51:16 PM 38.5558 -83.4481 99° East 475 547 33,000  Level Indianapolis Center
Tue 06:52:16 PM 38.5347 -83.2783 98° East 475 547 33,000  Level Indianapolis Center
Tue 06:53:16 PM 38.5156 -83.1111 98° East 480 552 33,000  Level Indianapolis Center
Tue 06:54:16 PM 38.4939 -82.9256 99° East 486 559 33,000  Level Indianapolis Center
Tue 06:55:16 PM 38.4719 -82.7558 98° East 479 551 33,000  Level Indianapolis Center
Tue 06:56:16 PM 38.4519 -82.5839 100° East 485 558 33,000  Level Indianapolis Center
Tue 06:57:16 PM 38.4294 -82.4144 99° East 485 558 33,000  Level Indianapolis Center
Tue 06:58:16 PM 38.4089 -82.2450 99° East 485 558 33,000  Level Indianapolis Center
Tue 06:59:16 PM 38.3883 -82.0786 99° East 485 558 33,000  Level Indianapolis Center
Tue 07:00:16 PM 38.3672 -81.9147 100° East 480 552 33,000  Level Indianapolis Center
Tue 07:01:16 PM 38.3439 -81.7511 101° East 475 547 33,000  Level Indianapolis Center
Tue 07:02:16 PM 38.3183 -81.5822 101° East 475 547 33,000  Level Indianapolis Center
Tue 07:03:16 PM 38.2925 -81.4189 101° East 475 547 33,000  Level Indianapolis Center
Tue 07:04:16 PM 38.2689 -81.2661 102° East 481 554 33,000 -514 Level Indianapolis Center
Tue 07:05:36 PM 38.2344 -81.0533 103° East 477 549 31,800 -1,500 Descending Washington Center
Tue 07:06:36 PM 38.2044 -80.8872 101° East 477 549 29,500 -1,400 Descending Washington Center
Tue 07:07:36 PM 38.1783 -80.7217 101° East 471 542 29,000 -496 Descending Washington Center
Tue 07:08:37 PM 38.1506 -80.5403 103° East 471 542 28,500 -885 Descending Washington Center
Tue 07:09:38 PM 38.1217 -80.3772 102° East 471 542 27,200 -1,412 Descending Washington Center
Tue 07:10:36 PM 38.0947 -80.2144 102° East 471 542 25,700 -1,462 Descending Washington Center
Tue 07:11:37 PM 38.0675 -80.0519 87° East 471 542 24,300 -1,785 Descending Washington Center
Tue 07:12:37 PM 38.0731 -79.8992 103° East 445 512 22,100 -1,650 Descending Washington Center
Tue 07:13:37 PM 38.0486 -79.7633 108° East 445 512 21,000 -1,140 Descending Washington Center
Tue 07:14:38 PM 38.0119 -79.6189 107° East 439 505 19,800 -992 Descending Washington Center
Tue 07:15:38 PM 37.9769 -79.4775 109° East 432 497 19,000 -407 Descending Washington Center
Tue 07:16:36 PM 37.9394 -79.3414 108° East 421 484 19,000  Level Washington Center
Tue 07:17:36 PM 37.9022 -79.1972 109° East 416 479 19,000  Level Washington Center
Tue 07:18:37 PM 37.8625 -79.0533 108° East 421 484 19,000 -793 Level Washington Center
Tue 07:19:37 PM 37.8233 -78.8989 109° East 426 490 17,400 -1,983 Descending Washington Center
Tue 07:20:38 PM 37.7872 -78.7661 109° East 413 475 15,000 -2,420 Descending Washington Center
Tue 07:21:36 PM 37.7528 -78.6411 108° East 396 456 12,600 -2,034 Descending Washington Center
Tue 07:22:36 PM 37.7206 -78.5139 109° East 382 440 11,000 -1,140 Descending Washington Center
Tue 07:23:37 PM 37.6917 -78.4103 108° East 364 419 10,300 -793 Descending Washington Center
Tue 07:24:37 PM 37.6650 -78.3097 110° East 333 383 9,400 -645 Descending Washington Center
Tue 07:25:38 PM 37.6358 -78.2089 109° East 310 357 9,000 -198 Descending Washington Center
Tue 07:26:38 PM 37.6086 -78.1111 110° East 305 351 9,000 -50 Level Washington Center
Tue 07:27:38 PM 37.5794 -78.0106 83° East 300 345 8,900 -814 Descending Washington Center
Tue 07:28:36 PM 37.5900 -77.9061 79° East 285 328 7,400 -1,513 Descending Washington Center
Tue 07:29:37 PM 37.6042 -77.8094 80° East 285 328 5,900 -1,475 Descending Washington Center
Tue 07:30:38 PM 37.6186 -77.7103 77° East 285 328 4,400 -1,289 Descending Washington Center
Tue 07:31:38 PM 37.6347 -77.6189 89° East 273 314 3,300 -763 Descending Washington Center
Tue 07:32:36 PM 37.6358 -77.5481 93° East 243 280 2,900 -153 Descending Washington Center
Tue 07:33:36 PM 37.6328 -77.4747 105° East 216 249 3,000 -281 Climbing Washington Center
Tue 07:35:48 PM 37.6000 -77.3167 158° South 165 190 2,000 -497 Descending Potomac TRACON
Tue 07:36:49 PM 37.5667 -77.3000 202° Southwest 136 157 1,400 -694 Descending Potomac TRACON
Tue 07:37:49 PM 37.5333 -77.3167 300° West 127 146 600 -800 Descending Potomac TRACON
Tue 07:45:32 PM 37.9699 -78.2733 120° Southeast  Level FlightAware Approximate
Tue 07:46:32 PM 37.9137 -78.1487 120° Southeast  Level FlightAware Approximate
Tue 07:47:32 PM 37.8575 -78.0243 120° Southeast  Level FlightAware Approximate

Login

Don't have an account? Register now (free) for customized features, flight alerts, and more!